sensor_id;sensor_type;location;lat;lon;timestamp;pressure;altitude;pressure_sealevel;temperature;humidity
78149;BME280;67396;42.664;23.382;2023-05-19T00:00:01;95176.78;;;10.87;78.47
78149;BME280;67396;42.664;23.382;2023-05-19T00:02:27;95174.50;;;11.00;78.02
78149;BME280;67396;42.664;23.382;2023-05-19T00:05:00;95173.69;;;10.88;78.32
78149;BME280;67396;42.664;23.382;2023-05-19T00:07:29;95170.47;;;10.83;78.80
78149;BME280;67396;42.664;23.382;2023-05-19T00:09:55;95162.59;;;10.78;78.81
78149;BME280;67396;42.664;23.382;2023-05-19T00:12:22;95169.31;;;10.80;79.40
78149;BME280;67396;42.664;23.382;2023-05-19T00:14:47;95165.38;;;10.81;79.54
78149;BME280;67396;42.664;23.382;2023-05-19T00:17:13;95161.84;;;10.81;79.41
78149;BME280;67396;42.664;23.382;2023-05-19T00:19:41;95159.44;;;10.72;79.50
78149;BME280;67396;42.664;23.382;2023-05-19T00:22:09;95152.38;;;10.71;79.87
78149;BME280;67396;42.664;23.382;2023-05-19T00:24:35;95154.75;;;10.76;79.50
78149;BME280;67396;42.664;23.382;2023-05-19T00:27:01;95156.75;;;10.79;79.24
78149;BME280;67396;42.664;23.382;2023-05-19T00:29:27;95150.13;;;10.87;78.63
78149;BME280;67396;42.664;23.382;2023-05-19T00:31:53;95156.38;;;10.84;78.63
78149;BME280;67396;42.664;23.382;2023-05-19T00:34:18;95150.09;;;10.80;78.31
78149;BME280;67396;42.664;23.382;2023-05-19T00:36:44;95152.41;;;10.78;78.71
78149;BME280;67396;42.664;23.382;2023-05-19T00:39:09;95153.53;;;10.74;79.04
78149;BME280;67396;42.664;23.382;2023-05-19T00:41:35;95145.25;;;10.63;79.08
78149;BME280;67396;42.664;23.382;2023-05-19T00:44:00;95139.34;;;10.61;79.13
78149;BME280;67396;42.664;23.382;2023-05-19T00:46:26;95143.63;;;10.55;79.27
78149;BME280;67396;42.664;23.382;2023-05-19T00:48:51;95140.88;;;10.55;79.45
78149;BME280;67396;42.664;23.382;2023-05-19T00:51:17;95142.03;;;10.54;79.34
78149;BME280;67396;42.664;23.382;2023-05-19T00:53:43;95151.53;;;10.64;79.49
78149;BME280;67396;42.664;23.382;2023-05-19T00:56:13;95153.06;;;10.65;79.32
78149;BME280;67396;42.664;23.382;2023-05-19T00:58:39;95146.84;;;10.68;79.02
78149;BME280;67396;42.664;23.382;2023-05-19T01:01:05;95149.16;;;10.66;78.64
78149;BME280;67396;42.664;23.382;2023-05-19T01:03:33;95146.84;;;10.68;78.98
78149;BME280;67396;42.664;23.382;2023-05-19T01:05:59;95141.72;;;10.63;79.65
78149;BME280;67396;42.664;23.382;2023-05-19T01:08:31;95140.88;;;10.59;79.77
78149;BME280;67396;42.664;23.382;2023-05-19T01:10:57;95133.34;;;10.48;79.77
78149;BME280;67396;42.664;23.382;2023-05-19T01:13:22;95147.06;;;10.45;80.26
78149;BME280;67396;42.664;23.382;2023-05-19T01:16:24;95146.59;;;10.36;80.45
78149;BME280;67396;42.664;23.382;2023-05-19T01:19:27;95148.13;;;10.33;81.02
78149;BME280;67396;42.664;23.382;2023-05-19T01:22:00;95148.16;;;10.37;81.06
78149;BME280;67396;42.664;23.382;2023-05-19T01:30:42;95147.25;;;10.26;80.94
78149;BME280;67396;42.664;23.382;2023-05-19T01:33:11;95149.63;;;10.27;81.32
78149;BME280;67396;42.664;23.382;2023-05-19T01:35:41;95145.69;;;10.25;81.23
78149;BME280;67396;42.664;23.382;2023-05-19T01:38:09;95155.00;;;10.16;81.77
78149;BME280;67396;42.664;23.382;2023-05-19T01:40:37;95156.50;;;10.10;81.67
78149;BME280;67396;42.664;23.382;2023-05-19T01:43:04;95149.38;;;10.06;82.08
78149;BME280;67396;42.664;23.382;2023-05-19T01:45:32;95147.44;;;10.06;82.66
78149;BME280;67396;42.664;23.382;2023-05-19T01:48:01;95157.59;;;10.02;82.48
78149;BME280;67396;42.664;23.382;2023-05-19T01:50:27;95148.94;;;10.00;82.75
78149;BME280;67396;42.664;23.382;2023-05-19T01:52:53;95150.47;;;9.98;82.91
78149;BME280;67396;42.664;23.382;2023-05-19T01:55:19;95154.88;;;10.06;82.89
78149;BME280;67396;42.664;23.382;2023-05-19T02:05:44;95159.56;;;10.05;82.28
78149;BME280;67396;42.664;23.382;2023-05-19T02:08:23;95161.56;;;10.08;82.12
78149;BME280;67396;42.664;23.382;2023-05-19T02:10:57;95165.91;;;10.09;82.47
78149;BME280;67396;42.664;23.382;2023-05-19T02:13:30;95162.31;;;10.05;82.47
78149;BME280;67396;42.664;23.382;2023-05-19T02:16:02;95164.25;;;10.01;82.26
78149;BME280;67396;42.664;23.382;2023-05-19T02:18:29;95157.97;;;10.01;82.44
78149;BME280;67396;42.664;23.382;2023-05-19T02:20:55;95155.19;;;9.97;82.55
78149;BME280;67396;42.664;23.382;2023-05-19T02:23:20;95153.22;;;9.98;82.50
78149;BME280;67396;42.664;23.382;2023-05-19T02:25:46;95151.69;;;10.00;82.55
78149;BME280;67396;42.664;23.382;2023-05-19T02:28:11;95158.06;;;10.11;81.84
78149;BME280;67396;42.664;23.382;2023-05-19T02:30:36;95164.31;;;10.08;81.88
78149;BME280;67396;42.664;23.382;2023-05-19T02:33:02;95160.47;;;10.16;81.02
78149;BME280;67396;42.664;23.382;2023-05-19T02:35:30;95167.69;;;10.28;80.82
78149;BME280;67396;42.664;23.382;2023-05-19T02:37:56;95160.56;;;10.24;80.72
78149;BME280;67396;42.664;23.382;2023-05-19T02:40:21;95157.31;;;10.14;81.60
78149;BME280;67396;42.664;23.382;2023-05-19T02:42:47;95160.28;;;9.99;82.32
78149;BME280;67396;42.664;23.382;2023-05-19T02:45:13;95163.03;;;9.99;82.39
78149;BME280;67396;42.664;23.382;2023-05-19T02:47:38;95169.72;;;10.01;82.17
78149;BME280;67396;42.664;23.382;2023-05-19T02:50:06;95170.41;;;9.95;82.49
78149;BME280;67396;42.664;23.382;2023-05-19T02:52:31;95171.38;;;10.09;81.81
78149;BME280;67396;42.664;23.382;2023-05-19T02:54:57;95168.97;;;10.04;81.59
78149;BME280;67396;42.664;23.382;2023-05-19T02:57:22;95174.22;;;9.83;82.77
78149;BME280;67396;42.664;23.382;2023-05-19T02:59:48;95167.91;;;9.79;82.67
78149;BME280;67396;42.664;23.382;2023-05-19T03:02:13;95163.94;;;9.76;83.10
78149;BME280;67396;42.664;23.382;2023-05-19T03:04:39;95176.50;;;9.77;82.99
78149;BME280;67396;42.664;23.382;2023-05-19T03:07:08;95173.31;;;9.72;83.11
78149;BME280;67396;42.664;23.382;2023-05-19T03:09:38;95182.31;;;9.72;82.97
78149;BME280;67396;42.664;23.382;2023-05-19T03:12:03;95186.66;;;9.77;83.27
78149;BME280;67396;42.664;23.382;2023-05-19T03:14:31;95185.44;;;9.71;83.36
78149;BME280;67396;42.664;23.382;2023-05-19T03:16:56;95185.28;;;9.90;82.49
78149;BME280;67396;42.664;23.382;2023-05-19T03:19:22;95179.19;;;10.07;81.91
78149;BME280;67396;42.664;23.382;2023-05-19T03:21:47;95175.28;;;10.08;81.55
78149;BME280;67396;42.664;23.382;2023-05-19T03:24:13;95183.94;;;10.14;81.24
78149;BME280;67396;42.664;23.382;2023-05-19T03:26:39;95184.84;;;10.22;81.08
78149;BME280;67396;42.664;23.382;2023-05-19T03:29:04;95174.63;;;10.18;81.20
78149;BME280;67396;42.664;23.382;2023-05-19T03:31:30;95176.03;;;10.05;81.88
78149;BME280;67396;42.664;23.382;2023-05-19T03:33:55;95186.19;;;10.01;82.24
78149;BME280;67396;42.664;23.382;2023-05-19T03:36:22;95176.75;;;9.99;82.66
78149;BME280;67396;42.664;23.382;2023-05-19T03:38:48;95186.09;;;9.94;83.00
78149;BME280;67396;42.664;23.382;2023-05-19T03:41:14;95180.28;;;9.99;82.22
78149;BME280;67396;42.664;23.382;2023-05-19T03:43:39;95183.53;;;10.12;82.15
78149;BME280;67396;42.664;23.382;2023-05-19T03:46:05;95186.84;;;10.25;81.59
78149;BME280;67396;42.664;23.382;2023-05-19T03:48:30;95185.25;;;10.24;81.53
78149;BME280;67396;42.664;23.382;2023-05-19T03:50:56;95190.81;;;10.31;81.23
78149;BME280;67396;42.664;23.382;2023-05-19T03:53:22;95193.19;;;10.32;81.67
78149;BME280;67396;42.664;23.382;2023-05-19T03:55:48;95197.56;;;10.37;81.23
78149;BME280;67396;42.664;23.382;2023-05-19T03:58:14;95195.34;;;10.53;80.85
78149;BME280;67396;42.664;23.382;2023-05-19T04:00:40;95201.31;;;10.62;80.50
78149;BME280;67396;42.664;23.382;2023-05-19T04:03:06;95195.50;;;10.74;80.22
78149;BME280;67396;42.664;23.382;2023-05-19T04:05:32;95196.81;;;10.87;79.56
78149;BME280;67396;42.664;23.382;2023-05-19T04:07:58;95193.69;;;10.92;78.81
78149;BME280;67396;42.664;23.382;2023-05-19T04:10:24;95189.50;;;11.09;79.33
78149;BME280;67396;42.664;23.382;2023-05-19T04:12:49;95193.59;;;11.33;78.55
78149;BME280;67396;42.664;23.382;2023-05-19T04:15:15;95203.88;;;11.43;77.83
78149;BME280;67396;42.664;23.382;2023-05-19T04:17:40;95207.78;;;11.46;77.20
78149;BME280;67396;42.664;23.382;2023-05-19T04:20:06;95203.16;;;11.64;76.77
78149;BME280;67396;42.664;23.382;2023-05-19T04:22:32;95200.13;;;11.76;75.93
78149;BME280;67396;42.664;23.382;2023-05-19T04:24:57;95210.66;;;11.70;75.71
78149;BME280;67396;42.664;23.382;2023-05-19T04:27:23;95207.22;;;11.77;75.00
78149;BME280;67396;42.664;23.382;2023-05-19T04:29:50;95206.09;;;11.99;75.07
78149;BME280;67396;42.664;23.382;2023-05-19T04:32:15;95212.81;;;12.09;75.55
78149;BME280;67396;42.664;23.382;2023-05-19T04:34:43;95212.88;;;12.20;75.35
78149;BME280;67396;42.664;23.382;2023-05-19T04:37:12;95221.13;;;12.23;74.13
78149;BME280;67396;42.664;23.382;2023-05-19T04:39:39;95218.81;;;12.39;74.27
78149;BME280;67396;42.664;23.382;2023-05-19T04:42:08;95228.63;;;12.40;74.17
78149;BME280;67396;42.664;23.382;2023-05-19T04:44:34;95218.81;;;12.39;73.39
78149;BME280;67396;42.664;23.382;2023-05-19T04:47:00;95211.72;;;12.49;73.41
78149;BME280;67396;42.664;23.382;2023-05-19T04:49:26;95207.44;;;12.76;72.33
78149;BME280;67396;42.664;23.382;2023-05-19T04:51:51;95212.13;;;12.58;73.16
78149;BME280;67396;42.664;23.382;2023-05-19T04:54:17;95213.75;;;12.80;72.00
78149;BME280;67396;42.664;23.382;2023-05-19T04:56:42;95213.75;;;12.91;71.45
78149;BME280;67396;42.664;23.382;2023-05-19T04:59:08;95224.75;;;13.02;72.37
78149;BME280;67396;42.664;23.382;2023-05-19T05:01:34;95220.44;;;13.11;71.46
78149;BME280;67396;42.664;23.382;2023-05-19T05:04:05;95216.91;;;13.22;71.34
78149;BME280;67396;42.664;23.382;2023-05-19T05:06:30;95222.44;;;13.22;70.68
78149;BME280;67396;42.664;23.382;2023-05-19T05:08:56;95207.47;;;13.15;70.70
78149;BME280;67396;42.664;23.382;2023-05-19T05:11:21;95214.16;;;13.00;71.18
78149;BME280;67396;42.664;23.382;2023-05-19T05:13:47;95219.66;;;13.11;71.50
78149;BME280;67396;42.664;23.382;2023-05-19T05:16:13;95212.16;;;13.04;70.26
78149;BME280;67396;42.664;23.382;2023-05-19T05:18:39;95214.53;;;12.81;71.43
78149;BME280;67396;42.664;23.382;2023-05-19T05:21:05;95210.22;;;13.08;71.10
78149;BME280;67396;42.664;23.382;2023-05-19T05:23:31;95211.38;;;13.29;70.62
78149;BME280;67396;42.664;23.382;2023-05-19T05:25:57;95205.50;;;13.34;70.01
78149;BME280;67396;42.664;23.382;2023-05-19T05:28:22;95205.09;;;13.32;70.36
78149;BME280;67396;42.664;23.382;2023-05-19T05:30:48;95215.31;;;13.42;70.41
78149;BME280;67396;42.664;23.382;2023-05-19T05:33:14;95212.38;;;13.99;73.35
78149;BME280;67396;42.664;23.382;2023-05-19T05:35:40;95222.53;;;14.26;68.31
78149;BME280;67396;42.664;23.382;2023-05-19T05:38:06;95226.06;;;14.41;67.58
78149;BME280;67396;42.664;23.382;2023-05-19T05:40:32;95234.63;;;14.57;67.16
78149;BME280;67396;42.664;23.382;2023-05-19T05:42:57;95223.41;;;14.86;65.92
78149;BME280;67396;42.664;23.382;2023-05-19T05:45:23;95220.94;;;14.98;65.10
78149;BME280;67396;42.664;23.382;2023-05-19T05:47:50;95222.38;;;15.14;65.75
78149;BME280;67396;42.664;23.382;2023-05-19T05:50:16;95221.81;;;15.36;63.88
78149;BME280;67396;42.664;23.382;2023-05-19T05:52:45;95227.41;;;15.26;64.31
78149;BME280;67396;42.664;23.382;2023-05-19T05:55:11;95237.94;;;15.41;65.22
78149;BME280;67396;42.664;23.382;2023-05-19T05:57:37;95239.91;;;15.44;64.49
78149;BME280;67396;42.664;23.382;2023-05-19T06:00:03;95236.28;;;15.55;63.95
78149;BME280;67396;42.664;23.382;2023-05-19T06:02:45;95252.88;;;15.55;63.56
78149;BME280;67396;42.664;23.382;2023-05-19T06:05:12;95240.06;;;15.71;63.92
78149;BME280;67396;42.664;23.382;2023-05-19T06:07:38;95251.78;;;15.86;62.64
78149;BME280;67396;42.664;23.382;2023-05-19T06:10:04;95254.09;;;15.91;63.05
78149;BME280;67396;42.664;23.382;2023-05-19T06:12:30;95253.78;;;16.19;61.02
78149;BME280;67396;42.664;23.382;2023-05-19T06:14:55;95252.25;;;16.15;61.78
78149;BME280;67396;42.664;23.382;2023-05-19T06:17:21;95251.13;;;16.43;60.68
78149;BME280;67396;42.664;23.382;2023-05-19T06:19:46;95249.28;;;16.33;61.08
78149;BME280;67396;42.664;23.382;2023-05-19T06:22:11;95251.63;;;16.34;60.57
78149;BME280;67396;42.664;23.382;2023-05-19T06:24:37;95249.22;;;16.36;60.14
78149;BME280;67396;42.664;23.382;2023-05-19T06:27:02;95235.22;;;16.47;60.07
78149;BME280;67396;42.664;23.382;2023-05-19T06:29:28;95243.72;;;16.93;59.45
78149;BME280;67396;42.664;23.382;2023-05-19T06:31:53;95260.28;;;17.24;57.85
78149;BME280;67396;42.664;23.382;2023-05-19T06:34:19;95244.91;;;17.43;56.71
78149;BME280;67396;42.664;23.382;2023-05-19T06:36:45;95247.03;;;17.58;55.86
78149;BME280;67396;42.664;23.382;2023-05-19T06:39:10;95248.72;;;17.52;56.38
78149;BME280;67396;42.664;23.382;2023-05-19T06:41:36;95250.56;;;17.62;55.98
78149;BME280;67396;42.664;23.382;2023-05-19T06:44:02;95255.31;;;17.39;54.34
78149;BME280;67396;42.664;23.382;2023-05-19T06:46:28;95251.84;;;17.54;53.77
78149;BME280;67396;42.664;23.382;2023-05-19T06:48:54;95250.66;;;17.79;54.05
78149;BME280;67396;42.664;23.382;2023-05-19T06:51:19;95256.16;;;17.82;54.71
78149;BME280;67396;42.664;23.382;2023-05-19T06:53:47;95253.44;;;18.02;53.51
78149;BME280;67396;42.664;23.382;2023-05-19T06:56:13;95257.69;;;17.60;54.21
78149;BME280;67396;42.664;23.382;2023-05-19T06:58:39;95263.50;;;17.46;54.31
78149;BME280;67396;42.664;23.382;2023-05-19T07:01:05;95262.03;;;17.64;54.62
78149;BME280;67396;42.664;23.382;2023-05-19T07:03:30;95256.72;;;18.17;53.77
78149;BME280;67396;42.664;23.382;2023-05-19T07:05:56;95262.63;;;18.78;50.68
78149;BME280;67396;42.664;23.382;2023-05-19T07:08:21;95260.25;;;18.76;49.47
78149;BME280;67396;42.664;23.382;2023-05-19T07:10:47;95262.09;;;18.83;47.97
78149;BME280;67396;42.664;23.382;2023-05-19T07:13:13;95264.78;;;19.23;49.56
78149;BME280;67396;42.664;23.382;2023-05-19T07:15:38;95265.34;;;19.34;50.20
78149;BME280;67396;42.664;23.382;2023-05-19T07:18:04;95272.63;;;19.44;49.24
78149;BME280;67396;42.664;23.382;2023-05-19T07:20:29;95266.56;;;19.33;50.45
78149;BME280;67396;42.664;23.382;2023-05-19T07:22:54;95274.06;;;19.68;47.87
78149;BME280;67396;42.664;23.382;2023-05-19T07:25:20;95276.50;;;19.50;47.32
78149;BME280;67396;42.664;23.382;2023-05-19T07:27:46;95268.53;;;19.16;48.21
78149;BME280;67396;42.664;23.382;2023-05-19T07:30:12;95271.91;;;19.60;47.87
78149;BME280;67396;42.664;23.382;2023-05-19T07:32:37;95272.28;;;19.90;48.08
78149;BME280;67396;42.664;23.382;2023-05-19T07:35:04;95272.09;;;20.14;45.98
78149;BME280;67396;42.664;23.382;2023-05-19T07:37:30;95263.63;;;20.17;46.71
78149;BME280;67396;42.664;23.382;2023-05-19T07:39:55;95274.38;;;19.38;48.45
78149;BME280;67396;42.664;23.382;2023-05-19T07:42:21;95274.56;;;19.63;49.38
78149;BME280;67396;42.664;23.382;2023-05-19T07:44:46;95271.16;;;19.72;48.33
78149;BME280;67396;42.664;23.382;2023-05-19T07:47:12;95262.75;;;19.75;49.28
78149;BME280;67396;42.664;23.382;2023-05-19T07:49:37;95259.75;;;19.82;47.15
78149;BME280;67396;42.664;23.382;2023-05-19T07:52:02;95269.06;;;19.92;47.37
78149;BME280;67396;42.664;23.382;2023-05-19T07:54:28;95266.19;;;19.47;49.00
78149;BME280;67396;42.664;23.382;2023-05-19T07:56:53;95269.03;;;19.27;50.10
78149;BME280;67396;42.664;23.382;2023-05-19T07:59:19;95266.44;;;19.36;50.30
78149;BME280;67396;42.664;23.382;2023-05-19T08:01:44;95268.50;;;19.52;50.50
78149;BME280;67396;42.664;23.382;2023-05-19T08:04:10;95262.91;;;19.84;49.47
78149;BME280;67396;42.664;23.382;2023-05-19T08:06:36;95268.47;;;19.84;49.11
78149;BME280;67396;42.664;23.382;2023-05-19T08:09:02;95265.84;;;19.94;49.14
78149;BME280;67396;42.664;23.382;2023-05-19T08:11:29;95259.31;;;20.29;47.36
78149;BME280;67396;42.664;23.382;2023-05-19T08:13:54;95263.22;;;20.03;47.25
78149;BME280;67396;42.664;23.382;2023-05-19T08:16:20;95256.63;;;19.80;47.58
78149;BME280;67396;42.664;23.382;2023-05-19T08:18:45;95260.47;;;19.70;46.83
78149;BME280;67396;42.664;23.382;2023-05-19T08:21:11;95259.09;;;19.78;47.21
78149;BME280;67396;42.664;23.382;2023-05-19T08:23:36;95261.06;;;19.62;48.12
78149;BME280;67396;42.664;23.382;2023-05-19T08:26:03;95265.66;;;19.36;48.02
78149;BME280;67396;42.664;23.382;2023-05-19T08:28:29;95267.06;;;19.44;48.46
78149;BME280;67396;42.664;23.382;2023-05-19T08:30:55;95266.75;;;19.58;48.16
78149;BME280;67396;42.664;23.382;2023-05-19T08:33:20;95264.94;;;20.13;47.08
78149;BME280;67396;42.664;23.382;2023-05-19T08:35:47;95261.38;;;20.41;44.60
78149;BME280;67396;42.664;23.382;2023-05-19T08:38:12;95260.88;;;20.30;44.83
78149;BME280;67396;42.664;23.382;2023-05-19T08:40:41;95262.75;;;20.49;45.23
78149;BME280;67396;42.664;23.382;2023-05-19T08:43:07;95259.00;;;20.69;44.78
78149;BME280;67396;42.664;23.382;2023-05-19T08:45:34;95267.06;;;20.67;44.51
78149;BME280;67396;42.664;23.382;2023-05-19T08:47:59;95260.56;;;20.70;45.83
78149;BME280;67396;42.664;23.382;2023-05-19T08:50:29;95252.13;;;20.86;45.30
78149;BME280;67396;42.664;23.382;2023-05-19T08:53:09;95262.00;;;20.49;44.83
78149;BME280;67396;42.664;23.382;2023-05-19T08:56:00;95251.47;;;20.82;45.53
78149;BME280;67396;42.664;23.382;2023-05-19T08:58:26;95254.06;;;20.47;46.83
78149;BME280;67396;42.664;23.382;2023-05-19T09:00:52;95262.63;;;20.40;46.81
78149;BME280;67396;42.664;23.382;2023-05-19T09:03:20;95250.97;;;20.71;46.78
78149;BME280;67396;42.664;23.382;2023-05-19T09:05:47;95246.59;;;21.24;45.59
78149;BME280;67396;42.664;23.382;2023-05-19T09:08:12;95244.66;;;21.59;44.14
78149;BME280;67396;42.664;23.382;2023-05-19T09:10:37;95248.34;;;21.56;44.21
78149;BME280;67396;42.664;23.382;2023-05-19T09:13:04;95246.28;;;21.82;43.83
78149;BME280;67396;42.664;23.382;2023-05-19T09:15:30;95239.13;;;22.06;42.24
78149;BME280;67396;42.664;23.382;2023-05-19T09:18:10;95237.88;;;22.29;40.57
78149;BME280;67396;42.664;23.382;2023-05-19T09:20:42;95239.84;;;21.72;41.04
78149;BME280;67396;42.664;23.382;2023-05-19T09:23:16;95229.72;;;21.53;41.61
78149;BME280;67396;42.664;23.382;2023-05-19T09:25:48;95234.50;;;21.52;41.96
78149;BME280;67396;42.664;23.382;2023-05-19T09:28:22;95224.63;;;21.73;42.64
78149;BME280;67396;42.664;23.382;2023-05-19T09:30:48;95227.56;;;21.69;43.55
78149;BME280;67396;42.664;23.382;2023-05-19T09:33:18;95229.03;;;21.96;43.15
78149;BME280;67396;42.664;23.382;2023-05-19T09:35:47;95217.53;;;22.28;41.11
78149;BME280;67396;42.664;23.382;2023-05-19T09:38:17;95218.25;;;22.20;42.06
78149;BME280;67396;42.664;23.382;2023-05-19T09:40:43;95222.34;;;22.28;41.35
78149;BME280;67396;42.664;23.382;2023-05-19T09:43:08;95216.94;;;22.55;40.24
78149;BME280;67396;42.664;23.382;2023-05-19T09:45:34;95225.06;;;22.19;39.25
78149;BME280;67396;42.664;23.382;2023-05-19T09:48:02;95231.47;;;21.72;39.74
78149;BME280;67396;42.664;23.382;2023-05-19T09:50:28;95224.63;;;21.73;40.03
78149;BME280;67396;42.664;23.382;2023-05-19T09:52:55;95233.38;;;21.50;39.72
78149;BME280;67396;42.664;23.382;2023-05-19T09:55:24;95225.69;;;21.41;40.49
78149;BME280;67396;42.664;23.382;2023-05-19T09:57:53;95222.56;;;21.39;40.21
78149;BME280;67396;42.664;23.382;2023-05-19T10:00:21;95213.28;;;21.04;40.46
78149;BME280;67396;42.664;23.382;2023-05-19T10:02:47;95213.97;;;21.33;40.13
78149;BME280;67396;42.664;23.382;2023-05-19T10:05:18;95207.38;;;21.15;40.46
78149;BME280;67396;42.664;23.382;2023-05-19T10:07:49;95208.53;;;21.17;40.76
78149;BME280;67396;42.664;23.382;2023-05-19T10:10:16;95208.97;;;21.28;39.81
78149;BME280;67396;42.664;23.382;2023-05-19T10:12:42;95207.50;;;21.36;41.21
78149;BME280;67396;42.664;23.382;2023-05-19T10:15:19;95207.38;;;21.53;40.20
78149;BME280;67396;42.664;23.382;2023-05-19T10:17:45;95207.91;;;21.48;40.69
78149;BME280;67396;42.664;23.382;2023-05-19T10:20:13;95198.88;;;21.44;41.22
78149;BME280;67396;42.664;23.382;2023-05-19T10:22:40;95210.75;;;21.35;41.73
78149;BME280;67396;42.664;23.382;2023-05-19T10:25:07;95205.03;;;20.88;40.26
78149;BME280;67396;42.664;23.382;2023-05-19T10:27:36;95194.41;;;20.57;40.59
78149;BME280;67396;42.664;23.382;2023-05-19T10:30:10;95199.38;;;20.37;41.91
78149;BME280;67396;42.664;23.382;2023-05-19T10:32:40;95192.63;;;20.22;42.61
78149;BME280;67396;42.664;23.382;2023-05-19T10:35:31;95185.63;;;20.30;42.45
78149;BME280;67396;42.664;23.382;2023-05-19T10:43:29;95185.88;;;20.36;41.39
78149;BME280;67396;42.664;23.382;2023-05-19T10:45:59;95193.56;;;20.03;41.30
78149;BME280;67396;42.664;23.382;2023-05-19T10:48:24;95184.50;;;19.99;41.84
78149;BME280;67396;42.664;23.382;2023-05-19T10:50:53;95180.25;;;19.94;41.97
78149;BME280;67396;42.664;23.382;2023-05-19T10:53:20;95180.00;;;19.88;41.31
78149;BME280;67396;42.664;23.382;2023-05-19T10:55:53;95171.84;;;19.81;40.17
78149;BME280;67396;42.664;23.382;2023-05-19T11:01:07;95169.06;;;19.81;42.54
78149;BME280;67396;42.664;23.382;2023-05-19T11:03:51;95168.97;;;19.85;42.94
78149;BME280;67396;42.664;23.382;2023-05-19T11:06:24;95177.34;;;19.98;43.29
78149;BME280;67396;42.664;23.382;2023-05-19T11:08:52;95178.09;;;19.85;42.88
78149;BME280;67396;42.664;23.382;2023-05-19T11:11:17;95169.91;;;19.95;43.11
78149;BME280;67396;42.664;23.382;2023-05-19T11:13:47;95164.91;;;20.02;42.75
78149;BME280;67396;42.664;23.382;2023-05-19T11:16:13;95170.69;;;20.08;42.83
78149;BME280;67396;42.664;23.382;2023-05-19T11:18:39;95167.19;;;20.20;42.93
78149;BME280;67396;42.664;23.382;2023-05-19T11:21:04;95161.75;;;20.29;41.64
78149;BME280;67396;42.664;23.382;2023-05-19T11:23:32;95158.47;;;20.18;42.13
78149;BME280;67396;42.664;23.382;2023-05-19T11:26:00;95156.91;;;20.17;42.38
78149;BME280;67396;42.664;23.382;2023-05-19T11:28:26;95162.59;;;20.13;42.43
78149;BME280;67396;42.664;23.382;2023-05-19T11:30:55;95160.47;;;20.05;41.70
78149;BME280;67396;42.664;23.382;2023-05-19T11:33:21;95179.97;;;20.05;41.39
78149;BME280;67396;42.664;23.382;2023-05-19T11:35:53;95175.19;;;19.89;42.10
78149;BME280;67396;42.664;23.382;2023-05-19T11:38:19;95193.25;;;19.84;44.96
78149;BME280;67396;42.664;23.382;2023-05-19T11:40:47;95202.34;;;19.56;46.39
78149;BME280;67396;42.664;23.382;2023-05-19T11:43:14;95196.06;;;19.36;48.52
78149;BME280;67396;42.664;23.382;2023-05-19T11:45:40;95209.97;;;19.03;53.08
78149;BME280;67396;42.664;23.382;2023-05-19T11:48:10;95195.34;;;18.83;50.62
78149;BME280;67396;42.664;23.382;2023-05-19T11:50:36;95195.31;;;18.47;52.08
78149;BME280;67396;42.664;23.382;2023-05-19T11:53:02;95190.59;;;18.08;55.70
78149;BME280;67396;42.664;23.382;2023-05-19T11:55:28;95190.44;;;17.76;55.00
78149;BME280;67396;42.664;23.382;2023-05-19T12:00:21;95275.16;;;17.60;56.01
78149;BME280;67396;42.664;23.382;2023-05-19T12:02:47;95243.28;;;16.68;54.39
78149;BME280;67396;42.664;23.382;2023-05-19T12:05:25;95236.13;;;16.06;56.63
78149;BME280;67396;42.664;23.382;2023-05-19T12:07:52;95230.69;;;15.58;56.71
78149;BME280;67396;42.664;23.382;2023-05-19T12:10:22;95247.44;;;15.40;56.49
78149;BME280;67396;42.664;23.382;2023-05-19T12:12:48;95248.28;;;15.34;57.26
78149;BME280;67396;42.664;23.382;2023-05-19T12:15:18;95246.69;;;15.36;60.51
78149;BME280;67396;42.664;23.382;2023-05-19T12:17:44;95238.78;;;15.38;60.48
78149;BME280;67396;42.664;23.382;2023-05-19T12:20:11;95233.44;;;15.14;58.83
78149;BME280;67396;42.664;23.382;2023-05-19T12:22:36;95239.41;;;15.12;60.34
78149;BME280;67396;42.664;23.382;2023-05-19T12:25:02;95234.16;;;15.25;60.39
78149;BME280;67396;42.664;23.382;2023-05-19T12:27:29;95235.25;;;15.34;62.50
78149;BME280;67396;42.664;23.382;2023-05-19T12:29:55;95241.56;;;15.38;64.35
78149;BME280;67396;42.664;23.382;2023-05-19T12:32:25;95227.97;;;15.51;66.00
78149;BME280;67396;42.664;23.382;2023-05-19T12:34:52;95234.72;;;15.50;65.05
78149;BME280;67396;42.664;23.382;2023-05-19T12:37:17;95221.22;;;15.59;64.11
78149;BME280;67396;42.664;23.382;2023-05-19T12:39:44;95215.59;;;15.66;61.92
78149;BME280;67396;42.664;23.382;2023-05-19T12:42:10;95218.41;;;15.63;63.64
78149;BME280;67396;42.664;23.382;2023-05-19T12:44:44;95215.88;;;15.79;63.54
78149;BME280;67396;42.664;23.382;2023-05-19T12:47:11;95209.06;;;15.87;63.35
78149;BME280;67396;42.664;23.382;2023-05-19T12:52:21;95190.34;;;15.98;63.64
78149;BME280;67396;42.664;23.382;2023-05-19T12:54:48;95194.97;;;16.08;63.15
78149;BME280;67396;42.664;23.382;2023-05-19T12:57:15;95188.97;;;16.13;62.93
78149;BME280;67396;42.664;23.382;2023-05-19T12:59:41;95188.03;;;16.24;62.30
78149;BME280;67396;42.664;23.382;2023-05-19T13:02:07;95189.91;;;16.34;61.58
78149;BME280;67396;42.664;23.382;2023-05-19T13:04:32;95183.88;;;16.39;58.31
78149;BME280;67396;42.664;23.382;2023-05-19T13:06:58;95178.22;;;16.46;59.40
78149;BME280;67396;42.664;23.382;2023-05-19T13:09:23;95171.22;;;16.68;59.94
78149;BME280;67396;42.664;23.382;2023-05-19T13:11:48;95170.38;;;16.71;58.55
78149;BME280;67396;42.664;23.382;2023-05-19T13:14:18;95168.28;;;16.79;57.52
78149;BME280;67396;42.664;23.382;2023-05-19T13:16:45;95168.47;;;16.91;55.59